KEUL

Caldwell Industrial Airport

Caldwell, Idaho, USA
METAR KEUL 211356Z AUTO 35003KT 6SM BR CLR 01/M01 A3011 RMK AO2 SLP200 T00111006 FZRANO
Observed Flight Rules
Oct-21 @ 13:56 UTC (42 minutes ago) Visual Flight Rules
Wind Visibility Clouds Conditions
350° at 3 knots 6 miles
  • Clear skies
  • Mist
Temperatures Readings
Current 1°C / 34°F
Dewpoint -1°C / 30°F
Humidity 87%
Altimeter 30.11" Hg
Pressure 1020 hPa
Elevation 740
METAR KEUL 211356Z AUTO 35003KT 6SM BR CLR 01/M01 A3011 RMK AO2 SLP200 T00111006 FZRANO
Observed Flight Rules
Oct-21 @ 13:56 UTC
(42 minutes ago)
VFR
Wind Visibility
350° at 3 knots 6 miles
Clouds
  • Clear skies
Conditions
  • Mist
Temperature Dewpoint
1°C / 34°F -1°C / 30°F
Humidity Altimeter Pressure
87% 30.11" Hg 1020 hPa